createdAt,value
2022-12-19T00:00:49.198Z,13.37
2022-12-19T00:03:18.314Z,12.87
2022-12-19T00:05:46.023Z,11.93
2022-12-19T00:08:17.023Z,10.83
2022-12-19T00:10:45.798Z,12.33
2022-12-19T00:13:15.647Z,12.33
2022-12-19T00:15:43.573Z,12.83
2022-12-19T00:18:11.221Z,12.50
2022-12-19T00:20:40.241Z,12.97
2022-12-19T00:23:07.851Z,13.03
2022-12-19T00:25:35.504Z,12.43
2022-12-19T00:28:06.449Z,12.97
2022-12-19T00:30:34.698Z,13.00
2022-12-19T00:33:02.361Z,13.40
2022-12-19T00:35:30.053Z,13.50
2022-12-19T00:37:59.284Z,12.93
2022-12-19T00:40:26.925Z,13.43
2022-12-19T00:42:54.586Z,13.90
2022-12-19T00:45:23.866Z,12.63
2022-12-19T00:47:51.583Z,13.70
2022-12-19T00:50:19.258Z,13.00
2022-12-19T00:52:46.969Z,13.27
2022-12-19T00:55:18.602Z,14.47
2022-12-19T00:57:47.374Z,12.87
2022-12-19T01:00:15.910Z,12.23
2022-12-19T01:02:43.926Z,12.87
2022-12-19T01:05:12.033Z,13.63
2022-12-19T01:07:39.655Z,12.87
2022-12-19T01:10:08.007Z,14.83
2022-12-19T01:12:48.107Z,13.40
2022-12-19T01:15:17.053Z,13.57
2022-12-19T01:17:45.129Z,14.10
2022-12-19T01:20:13.263Z,12.30
2022-12-19T01:22:40.981Z,14.10
2022-12-19T01:25:08.749Z,13.00
2022-12-19T01:27:37.946Z,14.53
2022-12-19T01:30:08.955Z,12.97
2022-12-19T01:32:37.507Z,12.50
2022-12-19T01:35:05.420Z,13.03
2022-12-19T01:37:33.100Z,13.27
2022-12-19T01:40:00.745Z,12.77
2022-12-19T01:42:35.646Z,13.40
2022-12-19T01:45:21.310Z,13.57
2022-12-19T01:47:52.519Z,14.00
2022-12-19T01:50:24.716Z,13.57
2022-12-19T01:52:52.984Z,14.43
2022-12-19T01:55:21.188Z,13.03
2022-12-19T01:57:49.121Z,13.77
2022-12-19T02:00:17.040Z,14.73
2022-12-19T02:02:46.248Z,13.10
2022-12-19T02:05:15.362Z,13.27
2022-12-19T02:07:43.296Z,13.60
2022-12-19T02:10:11.032Z,13.80
2022-12-19T02:12:40.712Z,12.20
2022-12-19T02:15:09.155Z,12.17
2022-12-19T02:17:40.804Z,13.63
2022-12-19T02:20:23.399Z,13.13
2022-12-19T02:23:00.507Z,14.60
2022-12-19T02:25:39.321Z,13.57
2022-12-19T02:28:15.883Z,13.90
2022-12-19T02:30:51.005Z,13.63
2022-12-19T02:33:20.838Z,12.57
2022-12-19T02:35:52.835Z,12.47
2022-12-19T02:38:22.694Z,13.43
2022-12-19T02:40:55.649Z,13.43
2022-12-19T02:43:24.499Z,13.70
2022-12-19T02:45:53.813Z,13.13
2022-12-19T02:48:21.725Z,13.50
2022-12-19T02:50:50.119Z,13.97
2022-12-19T02:53:24.013Z,13.70
2022-12-19T02:55:53.972Z,14.50
2022-12-19T02:58:39.515Z,12.17
2022-12-19T03:01:13.974Z,13.53
2022-12-19T03:03:45.896Z,14.13
2022-12-19T03:06:18.991Z,14.17
2022-12-19T03:08:53.924Z,13.30
2022-12-19T03:11:23.139Z,13.03
2022-12-19T03:13:54.985Z,13.53
2022-12-19T03:16:24.431Z,11.77
2022-12-19T03:18:52.499Z,13.23
2022-12-19T03:21:22.092Z,14.40
2022-12-19T03:23:50.712Z,12.73
2022-12-19T03:26:20.543Z,13.83
2022-12-19T03:28:51.559Z,13.20
2022-12-19T03:31:20.612Z,13.90
2022-12-19T03:33:51.796Z,14.10
2022-12-19T03:36:22.310Z,14.03
2022-12-19T03:38:50.459Z,13.93
2022-12-19T03:41:40.232Z,13.47
2022-12-19T03:44:07.774Z,14.83
2022-12-19T03:46:39.635Z,14.23
2022-12-19T03:49:08.668Z,15.20
2022-12-19T03:51:41.502Z,14.17
2022-12-19T03:54:11.291Z,13.63
2022-12-19T03:56:43.107Z,13.23
2022-12-19T03:59:12.476Z,14.93
2022-12-19T04:01:41.071Z,13.10
2022-12-19T04:04:10.320Z,13.80
2022-12-19T04:06:39.891Z,13.27
2022-12-19T04:09:07.550Z,13.70
2022-12-19T04:11:38.764Z,12.43
2022-12-19T04:14:08.547Z,12.50
2022-12-19T04:16:40.682Z,12.27
2022-12-19T04:19:12.357Z,11.90
2022-12-19T04:21:45.159Z,13.17
2022-12-19T04:24:17.141Z,13.77
2022-12-19T04:26:46.218Z,13.00
2022-12-19T04:29:14.688Z,11.40
2022-12-19T04:31:42.935Z,14.23
2022-12-19T04:34:11.919Z,13.20
2022-12-19T04:36:39.821Z,11.20
2022-12-19T04:39:07.548Z,13.03
2022-12-19T04:41:35.190Z,13.00
2022-12-19T04:44:02.820Z,13.23
2022-12-19T04:46:30.617Z,14.90
2022-12-19T04:48:58.274Z,14.47
2022-12-19T04:51:27.347Z,13.93
2022-12-19T04:53:55.012Z,13.37
2022-12-19T04:56:22.648Z,14.00
2022-12-19T04:58:50.304Z,14.73
2022-12-19T05:01:18.709Z,12.93
2022-12-19T05:03:51.333Z,13.77
2022-12-19T05:06:22.929Z,14.13
2022-12-19T05:08:51.986Z,14.03
2022-12-19T05:11:20.172Z,13.63
2022-12-19T05:13:49.971Z,13.80
2022-12-19T05:16:17.974Z,14.07
2022-12-19T05:18:45.739Z,15.20
2022-12-19T05:21:13.900Z,15.57
2022-12-19T05:23:41.632Z,15.30
2022-12-19T05:26:12.123Z,14.87
2022-12-19T05:28:39.849Z,15.63
2022-12-19T05:31:08.210Z,15.07
2022-12-19T05:33:36.207Z,14.50
2022-12-19T05:36:04.167Z,14.63
2022-12-19T05:38:31.825Z,14.57
2022-12-19T05:40:59.774Z,14.10
2022-12-19T05:43:28.960Z,14.27
2022-12-19T05:45:56.588Z,14.87
2022-12-19T05:48:24.257Z,15.03
2022-12-19T05:50:52.052Z,13.10
2022-12-19T05:53:23.307Z,15.87
2022-12-19T05:55:53.618Z,13.70
2022-12-19T05:58:21.299Z,13.90
2022-12-19T06:00:50.335Z,13.97
2022-12-19T06:03:18.144Z,13.50
2022-12-19T06:05:45.849Z,14.17
2022-12-19T06:08:13.458Z,14.97
2022-12-19T06:10:41.124Z,15.27
2022-12-19T06:13:09.312Z,14.90
2022-12-19T06:15:37.018Z,15.10
2022-12-19T06:18:06.578Z,14.80
2022-12-19T06:20:34.186Z,14.53
2022-12-19T06:23:02.259Z,12.97
2022-12-19T06:25:30.049Z,14.90
2022-12-19T06:27:57.700Z,15.17
2022-12-19T06:30:25.357Z,15.57
2022-12-19T06:32:53.089Z,14.07
2022-12-19T06:35:22.099Z,14.53
2022-12-19T06:37:49.840Z,14.63
2022-12-19T06:40:38.045Z,15.40
2022-12-19T06:43:04.674Z,16.37
2022-12-19T06:45:32.551Z,16.27
2022-12-19T06:48:00.307Z,16.87
2022-12-19T06:50:29.283Z,17.40
2022-12-19T06:52:57.001Z,16.37
2022-12-19T06:55:24.891Z,19.57
2022-12-19T06:57:52.548Z,17.23
2022-12-19T07:00:21.896Z,19.10
2022-12-19T07:02:51.913Z,17.73
2022-12-19T07:05:19.837Z,17.47
2022-12-19T07:07:48.919Z,17.83
2022-12-19T07:10:16.824Z,17.77
2022-12-19T07:12:44.622Z,17.37
2022-12-19T07:15:13.224Z,17.27
2022-12-19T07:17:41.464Z,17.50
2022-12-19T07:20:09.668Z,17.63
2022-12-19T07:22:37.901Z,19.57
2022-12-19T07:25:07.667Z,17.23
2022-12-19T07:27:36.250Z,16.90
2022-12-19T07:30:04.946Z,17.30
2022-12-19T07:32:32.636Z,17.17
2022-12-19T07:35:00.312Z,17.27
2022-12-19T07:37:28.069Z,16.57
2022-12-19T07:39:55.755Z,18.13
2022-12-19T07:42:29.349Z,18.33
2022-12-19T07:44:59.831Z,19.77
2022-12-19T07:47:28.118Z,19.17
2022-12-19T07:49:55.742Z,21.43
2022-12-19T07:52:23.415Z,18.37
2022-12-19T07:54:51.035Z,17.10
2022-12-19T07:57:18.682Z,19.40
2022-12-19T07:59:47.897Z,21.97
2022-12-19T08:02:15.756Z,17.27
2022-12-19T08:04:43.482Z,19.23
2022-12-19T08:07:11.570Z,20.57
2022-12-19T08:09:39.256Z,19.37
2022-12-19T08:12:07.139Z,18.33
2022-12-19T08:14:34.913Z,18.60
2022-12-19T08:17:20.111Z,17.03
2022-12-19T08:19:48.597Z,17.13
2022-12-19T08:22:16.274Z,17.33
2022-12-19T08:24:44.028Z,17.60
2022-12-19T08:27:11.941Z,17.20
2022-12-19T08:29:39.603Z,18.17
2022-12-19T08:32:08.599Z,18.23
2022-12-19T08:34:36.459Z,17.43
2022-12-19T08:37:04.123Z,19.40
2022-12-19T08:39:31.765Z,18.30
2022-12-19T08:41:59.475Z,16.83
2022-12-19T08:44:27.093Z,15.00
2022-12-19T08:46:54.764Z,16.43
2022-12-19T08:49:23.966Z,16.07
2022-12-19T08:51:51.979Z,16.77
2022-12-19T08:54:19.654Z,17.93
2022-12-19T08:56:47.442Z,17.40
2022-12-19T08:59:21.261Z,19.87
2022-12-19T09:01:59.287Z,22.60
2022-12-19T09:05:59.655Z,22.70
2022-12-19T09:07:16.536Z,22.77
2022-12-19T09:09:44.314Z,21.20
2022-12-19T09:12:12.989Z,20.13
2022-12-19T09:14:40.788Z,21.67
2022-12-19T09:17:08.950Z,19.70
2022-12-19T09:19:37.981Z,20.43
2022-12-19T09:22:06.702Z,20.17
2022-12-19T09:24:34.335Z,19.07
2022-12-19T09:27:02.021Z,18.57
2022-12-19T09:29:35.093Z,19.40
2022-12-19T09:32:03.260Z,19.40
2022-12-19T09:34:36.839Z,17.17
2022-12-19T09:37:08.545Z,15.60
2022-12-19T09:39:36.773Z,15.77
2022-12-19T09:42:18.878Z,16.17
2022-12-19T09:44:53.759Z,14.10
2022-12-19T09:47:23.892Z,15.47
2022-12-19T09:49:54.069Z,14.93
2022-12-19T09:52:27.791Z,15.80
2022-12-19T09:55:03.127Z,14.27
2022-12-19T09:57:36.520Z,14.77
2022-12-19T10:00:06.338Z,14.80
2022-12-19T10:02:38.656Z,14.20
2022-12-19T10:05:53.910Z,14.27
2022-12-19T10:08:10.314Z,17.83
2022-12-19T10:12:38.372Z,16.80
2022-12-19T10:13:40.465Z,16.57
2022-12-19T10:16:12.262Z,20.67
2022-12-19T10:18:56.018Z,17.33
2022-12-19T10:22:07.676Z,16.33
2022-12-19T10:24:35.098Z,13.90
2022-12-19T10:27:07.740Z,15.00
2022-12-19T10:29:55.057Z,14.00
2022-12-19T10:32:28.743Z,16.93
2022-12-19T10:34:56.563Z,15.33
2022-12-19T10:37:35.202Z,19.73
2022-12-19T10:40:20.967Z,15.43
2022-12-19T10:42:58.032Z,17.40
2022-12-19T10:45:29.387Z,15.93
2022-12-19T10:47:58.521Z,15.90
2022-12-19T10:50:27.084Z,14.23
2022-12-19T10:52:56.943Z,16.83
2022-12-19T10:55:31.480Z,15.93
2022-12-19T10:57:59.561Z,15.47
2022-12-19T11:00:27.807Z,13.33
2022-12-19T11:03:09.758Z,15.40
2022-12-19T11:05:42.697Z,15.53
2022-12-19T11:08:15.247Z,13.20
2022-12-19T11:12:41.351Z,12.77
2022-12-19T11:19:26.795Z,11.37
2022-12-19T11:22:51.747Z,13.60
2022-12-19T11:26:47.468Z,13.17
2022-12-19T11:29:32.816Z,12.63
2022-12-19T11:29:40.716Z,11.87
2022-12-19T11:30:47.997Z,11.13
2022-12-19T11:33:30.643Z,9.50
2022-12-19T11:35:59.710Z,10.97
2022-12-19T11:38:35.859Z,11.60
2022-12-19T11:41:06.144Z,8.20
2022-12-19T11:43:44.480Z,11.20
2022-12-19T11:46:21.703Z,9.93
2022-12-19T11:48:53.498Z,10.23
2022-12-19T11:51:24.345Z,10.57
2022-12-19T11:53:57.654Z,8.67
2022-12-19T11:56:25.880Z,12.00
2022-12-19T11:58:56.779Z,10.90
2022-12-19T12:01:34.269Z,9.37
2022-12-19T12:04:07.347Z,10.77
2022-12-19T12:06:36.417Z,8.83
2022-12-19T12:12:28.417Z,6.57
2022-12-19T12:19:30.595Z,9.20
2022-12-19T12:23:46.545Z,9.57
2022-12-19T12:24:37.760Z,9.57
2022-12-19T12:31:07.691Z,10.53
2022-12-19T12:31:40.238Z,10.40
2022-12-19T12:31:48.339Z,10.20
2022-12-19T12:32:04.348Z,10.80
2022-12-19T12:35:50.034Z,11.10
2022-12-19T12:37:15.846Z,10.43
2022-12-19T12:38:22.692Z,9.33
2022-12-19T12:40:57.147Z,8.67
2022-12-19T12:43:32.732Z,10.87
2022-12-19T12:46:00.648Z,11.73
2022-12-19T12:48:32.599Z,10.87
2022-12-19T12:51:00.947Z,9.50
2022-12-19T12:53:30.957Z,9.83
2022-12-19T12:56:00.451Z,9.57
2022-12-19T12:58:53.973Z,10.80
2022-12-19T13:01:30.159Z,9.03
2022-12-19T13:04:00.159Z,9.00
2022-12-19T13:06:28.674Z,10.57
2022-12-19T13:09:02.996Z,8.23
2022-12-19T13:11:54.793Z,9.63
2022-12-19T13:14:41.059Z,8.97
2022-12-19T13:17:09.379Z,8.63
2022-12-19T13:19:39.252Z,9.77
2022-12-19T13:22:23.579Z,9.47
2022-12-19T13:24:52.484Z,9.07
2022-12-19T13:27:37.011Z,8.37
2022-12-19T13:30:14.867Z,8.47
2022-12-19T13:33:01.162Z,6.93
2022-12-19T13:39:08.990Z,8.53
2022-12-19T13:39:54.404Z,8.67
2022-12-19T13:41:44.869Z,9.00
2022-12-19T13:44:12.954Z,7.77
2022-12-19T13:46:42.731Z,9.47
2022-12-19T13:49:13.730Z,9.47
2022-12-19T13:51:44.426Z,9.13
2022-12-19T13:54:23.023Z,8.63
2022-12-19T13:56:50.990Z,10.27
2022-12-19T13:59:18.915Z,10.00
2022-12-19T14:01:46.854Z,8.90
2022-12-19T14:04:16.964Z,11.40
2022-12-19T14:06:46.806Z,10.40
2022-12-19T14:11:28.775Z,10.47
2022-12-19T14:13:39.500Z,10.77
2022-12-19T14:15:28.154Z,9.20
2022-12-19T14:17:55.822Z,11.43
2022-12-19T14:22:03.909Z,10.87
2022-12-19T14:23:16.222Z,9.33
2022-12-19T14:28:18.523Z,10.27
2022-12-19T14:28:55.129Z,9.77
2022-12-19T14:31:24.914Z,9.57
2022-12-19T14:34:18.405Z,10.87
2022-12-19T14:36:41.772Z,8.03
2022-12-19T14:39:25.613Z,9.60
2022-12-19T14:42:19.928Z,8.57
2022-12-19T14:52:25.214Z,10.53
2022-12-19T14:52:25.699Z,9.87
2022-12-19T14:54:08.373Z,11.07
2022-12-19T14:55:13.372Z,8.70
2022-12-19T14:56:59.758Z,9.23
2022-12-19T14:59:30.422Z,10.23
2022-12-19T15:02:01.235Z,8.33
2022-12-19T15:04:53.133Z,8.80
2022-12-19T15:07:20.522Z,7.87
2022-12-19T15:10:58.913Z,10.17
2022-12-19T15:14:54.653Z,11.43
2022-12-19T15:15:56.713Z,11.13
2022-12-19T15:18:26.524Z,9.77
2022-12-19T15:20:55.835Z,11.97
2022-12-19T15:23:24.028Z,12.17
2022-12-19T15:26:08.332Z,12.93
2022-12-19T15:28:40.141Z,11.87
2022-12-19T15:31:11.773Z,14.20
2022-12-19T15:33:59.761Z,15.00
2022-12-19T15:36:27.194Z,15.87
2022-12-19T15:38:54.831Z,13.17
2022-12-19T15:41:23.699Z,14.53
2022-12-19T15:44:03.656Z,16.90
2022-12-19T15:46:32.784Z,18.37
2022-12-19T15:49:01.148Z,17.30
2022-12-19T15:51:28.830Z,18.40
2022-12-19T15:54:09.060Z,18.07
2022-12-19T15:56:46.806Z,23.70
2022-12-19T15:59:21.455Z,18.23
2022-12-19T16:01:49.217Z,20.20
2022-12-19T16:04:17.015Z,16.77
2022-12-19T16:06:44.836Z,17.00
2022-12-19T16:09:18.553Z,14.90
2022-12-19T16:11:46.217Z,16.27
2022-12-19T16:14:14.165Z,16.50
2022-12-19T16:16:43.759Z,15.47
2022-12-19T16:19:23.849Z,17.10
2022-12-19T16:21:51.541Z,16.27
2022-12-19T16:24:19.178Z,15.03
2022-12-19T16:26:50.105Z,17.00
2022-12-19T16:29:19.349Z,20.90
2022-12-19T16:31:48.368Z,14.57
2022-12-19T16:34:16.995Z,18.27
2022-12-19T16:36:45.090Z,15.73
2022-12-19T16:39:14.126Z,15.27
2022-12-19T16:41:43.132Z,14.97
2022-12-19T16:44:19.319Z,16.70
2022-12-19T16:46:51.378Z,14.90
2022-12-19T16:49:22.383Z,17.27
2022-12-19T16:51:50.066Z,15.23
2022-12-19T16:54:18.544Z,17.33
2022-12-19T16:56:49.217Z,16.20
2022-12-19T16:59:19.123Z,15.90
2022-12-19T17:01:48.514Z,14.37
2022-12-19T17:04:17.053Z,15.67
2022-12-19T17:06:44.675Z,19.37
2022-12-19T17:09:15.773Z,20.83
2022-12-19T17:11:46.585Z,14.33
2022-12-19T17:14:17.392Z,14.37
2022-12-19T17:16:45.351Z,14.53
2022-12-19T17:19:22.776Z,16.00
2022-12-19T17:21:50.412Z,13.80
2022-12-19T17:24:18.167Z,16.50
2022-12-19T17:26:46.477Z,15.13
2022-12-19T17:29:14.610Z,16.47
2022-12-19T17:31:42.751Z,13.90
2022-12-19T17:34:17.122Z,14.60
2022-12-19T17:36:46.428Z,15.70
2022-12-19T17:39:19.304Z,15.10
2022-12-19T17:41:47.368Z,16.97
2022-12-19T17:44:15.064Z,15.57
2022-12-19T17:46:43.496Z,15.20
2022-12-19T17:49:16.813Z,14.23
2022-12-19T17:51:47.764Z,14.90
2022-12-19T17:54:15.409Z,14.20
2022-12-19T17:56:43.104Z,15.03
2022-12-19T17:59:10.814Z,12.93
2022-12-19T18:01:41.688Z,12.93
2022-12-19T18:04:13.401Z,11.57
2022-12-19T18:06:42.089Z,13.13
2022-12-19T18:09:16.812Z,11.90
2022-12-19T18:11:45.498Z,13.23
2022-12-19T18:14:13.192Z,11.77
2022-12-19T18:16:47.181Z,13.43
2022-12-19T18:19:18.939Z,8.83
2022-12-19T18:21:46.787Z,8.70
2022-12-19T18:24:16.525Z,6.80
2022-12-19T18:26:44.777Z,6.77
2022-12-19T18:29:12.827Z,5.60
2022-12-19T18:31:46.439Z,6.97
2022-12-19T18:34:18.544Z,6.97
2022-12-19T18:36:46.269Z,6.60
2022-12-19T18:39:21.304Z,6.60
2022-12-19T18:41:48.998Z,6.53
2022-12-19T18:44:17.119Z,6.37
2022-12-19T18:46:47.421Z,6.70
2022-12-19T18:49:15.768Z,7.43
2022-12-19T18:51:44.639Z,7.27
2022-12-19T18:54:14.192Z,8.13
2022-12-19T18:56:43.183Z,6.33
2022-12-19T18:59:11.212Z,7.93
2022-12-19T19:01:40.691Z,7.50
2022-12-19T19:04:09.099Z,6.73
2022-12-19T19:06:38.307Z,6.97
2022-12-19T19:09:11.975Z,7.73
2022-12-19T19:11:39.751Z,7.80
2022-12-19T19:14:08.804Z,6.77
2022-12-19T19:16:40.062Z,7.30
2022-12-19T19:19:09.856Z,7.03
2022-12-19T19:21:37.541Z,6.60
2022-12-19T19:24:07.413Z,5.60
2022-12-19T19:26:35.072Z,4.97
2022-12-19T19:29:04.118Z,5.50
2022-12-19T19:31:35.392Z,5.10
2022-12-19T19:34:06.548Z,5.00
2022-12-19T19:36:37.768Z,4.87
2022-12-19T19:39:05.808Z,4.43
2022-12-19T19:41:34.401Z,5.40
2022-12-19T19:44:02.168Z,5.60
2022-12-19T19:46:30.401Z,5.10
2022-12-19T19:48:59.746Z,4.23
2022-12-19T19:51:29.119Z,5.67
2022-12-19T19:53:56.913Z,4.73
2022-12-19T19:56:24.545Z,6.03
2022-12-19T19:58:52.706Z,6.53
2022-12-19T20:01:20.530Z,6.83
2022-12-19T20:03:49.442Z,6.93
2022-12-19T20:06:19.298Z,4.80
2022-12-19T20:08:47.435Z,4.13
2022-12-19T20:11:15.107Z,3.23
2022-12-19T20:13:42.989Z,3.27
2022-12-19T20:16:12.335Z,5.23
2022-12-19T20:18:40.992Z,4.40
2022-12-19T20:21:12.776Z,5.10
2022-12-19T20:23:44.004Z,4.73
2022-12-19T20:26:12.610Z,5.90
2022-12-19T20:28:47.878Z,4.90
2022-12-19T20:31:16.856Z,4.77
2022-12-19T20:33:45.130Z,4.20
2022-12-19T20:36:13.658Z,4.13
2022-12-19T20:38:42.910Z,4.00
2022-12-19T20:41:10.633Z,5.13
2022-12-19T20:43:38.952Z,4.23
2022-12-19T20:46:08.004Z,3.67
2022-12-19T20:48:35.708Z,5.07
2022-12-19T20:51:04.673Z,4.17
2022-12-19T20:53:32.987Z,5.00
2022-12-19T20:56:02.711Z,4.30
2022-12-19T20:58:30.939Z,4.40
2022-12-19T21:00:59.014Z,4.47
2022-12-19T21:03:29.091Z,5.10
2022-12-19T21:05:57.943Z,5.83
2022-12-19T21:08:26.162Z,5.07
2022-12-19T21:10:54.273Z,5.93
2022-12-19T21:13:23.938Z,5.33
2022-12-19T21:15:52.958Z,5.67
2022-12-19T21:18:20.668Z,5.60
2022-12-19T21:20:48.448Z,5.13
2022-12-19T21:23:16.168Z,5.20
2022-12-19T21:25:43.856Z,6.03
2022-12-19T21:28:11.753Z,6.43
2022-12-19T21:30:40.854Z,6.60
2022-12-19T21:33:08.657Z,5.63
2022-12-19T21:35:36.601Z,6.03
2022-12-19T21:38:04.470Z,6.50
2022-12-19T21:40:32.136Z,4.97
2022-12-19T21:42:59.798Z,7.67
2022-12-19T21:45:27.469Z,5.27
2022-12-19T21:47:56.510Z,6.80
2022-12-19T21:50:24.166Z,6.63
2022-12-19T21:52:55.814Z,7.17
2022-12-19T21:55:23.752Z,7.03
2022-12-19T21:57:51.395Z,7.73
2022-12-19T22:00:19.487Z,7.10
2022-12-19T22:03:12.142Z,7.33
2022-12-19T22:05:37.380Z,6.17
2022-12-19T22:08:05.106Z,7.67
2022-12-19T22:10:32.782Z,8.03
2022-12-19T22:13:00.451Z,8.03
2022-12-19T22:15:28.533Z,8.00
2022-12-19T22:17:56.608Z,7.90
2022-12-19T22:20:24.300Z,8.23
2022-12-19T22:22:53.376Z,9.13
2022-12-19T22:25:21.000Z,8.07
2022-12-19T22:27:48.760Z,8.83
2022-12-19T22:30:16.742Z,8.30
2022-12-19T22:32:44.386Z,7.97
2022-12-19T22:35:12.122Z,7.50
2022-12-19T22:37:39.843Z,8.43
2022-12-19T22:40:09.699Z,8.83
2022-12-19T22:42:37.502Z,8.40
2022-12-19T22:45:05.460Z,6.23
2022-12-19T22:47:33.089Z,6.53
2022-12-19T22:50:00.868Z,7.47
2022-12-19T22:52:28.536Z,6.80
2022-12-19T22:54:56.195Z,8.83
2022-12-19T22:57:25.404Z,7.57
2022-12-19T22:59:53.060Z,9.23
2022-12-19T23:02:20.895Z,9.63
2022-12-19T23:04:48.668Z,9.27
2022-12-19T23:07:17.194Z,8.33
2022-12-19T23:09:44.971Z,8.70
2022-12-19T23:12:12.718Z,8.67
2022-12-19T23:14:41.799Z,7.50
2022-12-19T23:17:09.969Z,8.63
2022-12-19T23:19:37.725Z,9.53
2022-12-19T23:22:05.415Z,9.80
2022-12-19T23:24:33.319Z,9.03
2022-12-19T23:27:01.100Z,8.47
2022-12-19T23:29:28.771Z,9.67
2022-12-19T23:31:57.832Z,8.57
2022-12-19T23:34:25.633Z,7.20
2022-12-19T23:39:41.065Z,7.73
2022-12-19T23:42:08.951Z,7.37
2022-12-19T23:44:36.838Z,7.17
2022-12-19T23:47:05.922Z,7.83
2022-12-19T23:49:33.843Z,8.70
2022-12-19T23:52:01.534Z,8.00
2022-12-19T23:54:29.326Z,8.37
2022-12-19T23:56:57.053Z,6.97
2022-12-19T23:59:24.729Z,6.60
